Time;durP1;ratioP1;P1;durP2;ratioP2;P2;SDS_P1;SDS_P2;PMS_P1;PMS_P2;Temp;Humidity;BMP_temperature;BMP_pressure;BME280_temperature;BME280_humidity;BME280_pressure;Samples;Min_cycle;Max_cycle;Signal;HPM_P1;HPM_P2
2022/11/27 00:01:15;;;;;;;0.60;0.60;;;5.40;99.90;;;;;;5007264;28;20093;-79
2022/11/27 00:03:41;;;;;;;0.50;0.50;;;5.70;99.90;;;;;;5003508;28;21958;-78
2022/11/27 00:06:10;;;;;;;0.52;0.52;;;5.70;99.90;;;;;;4987802;28;20054;-78
2022/11/27 00:08:36;;;;;;;0.65;0.65;;;5.90;99.90;;;;;;4986118;28;20046;-81
2022/11/27 00:11:11;;;;;;;0.68;0.68;;;5.60;99.90;;;;;;4984082;28;20049;-81
2022/11/27 00:13:37;;;;;;;0.77;0.77;;;5.60;99.90;;;;;;5017393;28;20132;-78
2022/11/27 00:16:05;;;;;;;0.60;0.60;;;5.60;99.90;;;;;;4997258;28;20503;-78
2022/11/27 00:18:31;;;;;;;0.55;0.55;;;5.60;99.90;;;;;;5009759;28;20066;-78
2022/11/27 00:21:06;;;;;;;0.60;0.60;;;5.50;99.90;;;;;;4997574;28;20041;-79
2022/11/27 00:23:33;;;;;;;0.60;0.60;;;5.50;99.90;;;;;;4997911;28;20038;-78
2022/11/27 00:25:59;;;;;;;0.65;0.65;;;5.40;99.90;;;;;;4982149;28;20129;-78
2022/11/27 00:28:25;;;;;;;0.73;0.73;;;5.40;99.90;;;;;;4997619;28;20041;-77
2022/11/27 00:30:50;;;;;;;0.70;0.70;;;5.40;99.90;;;;;;4984800;28;20126;-80
2022/11/27 00:33:16;;;;;;;0.80;0.80;;;5.40;99.90;;;;;;4997076;28;20042;-78
2022/11/27 00:35:42;;;;;;;0.50;0.50;;;5.20;99.90;;;;;;4996785;28;20128;-76
2022/11/27 00:38:10;;;;;;;0.55;0.55;;;5.30;99.90;;;;;;4998107;28;20046;-78
2022/11/27 00:40:36;;;;;;;0.60;0.60;;;6.20;99.90;;;;;;4997263;28;20639;-79
2022/11/27 00:43:02;;;;;;;0.52;0.52;;;5.30;99.90;;;;;;4997603;28;20069;-79
2022/11/27 00:45:27;;;;;;;0.63;0.63;;;5.40;99.90;;;;;;5003241;28;20073;-79
2022/11/27 00:47:53;;;;;;;0.60;0.60;;;5.30;99.90;;;;;;5005310;28;20594;-78
2022/11/27 00:50:19;;;;;;;0.70;0.70;;;5.30;99.90;;;;;;5002771;28;20081;-79
2022/11/27 00:52:44;;;;;;;0.60;0.60;;;5.70;99.90;;;;;;4998334;28;20038;-80
2022/11/27 00:55:11;;;;;;;0.70;0.70;;;5.20;99.90;;;;;;5016957;28;20137;-80
2022/11/27 00:57:37;;;;;;;0.60;0.60;;;5.20;99.90;;;;;;4995988;28;20045;-80
2022/11/27 01:00:04;;;;;;;0.60;0.60;;;5.20;99.90;;;;;;4997590;28;20038;-80
2022/11/27 01:02:30;;;;;;;1.38;1.38;;;5.20;99.90;;;;;;4995785;28;20053;-79
2022/11/27 01:05:02;;;;;;;0.60;0.60;;;5.20;99.90;;;;;;4981031;28;20107;-79
2022/11/27 01:07:27;;;;;;;1.00;1.00;;;5.20;99.90;;;;;;4990032;28;20038;-79
2022/11/27 01:09:53;;;;;;;0.50;0.50;;;5.20;99.90;;;;;;5003896;28;20462;-80
2022/11/27 01:12:18;;;;;;;0.47;0.47;;;5.20;99.90;;;;;;4983510;28;20043;-78
2022/11/27 01:14:44;;;;;;;0.90;0.90;;;5.40;99.90;;;;;;4996308;28;20151;-79
2022/11/27 01:17:10;;;;;;;0.63;0.63;;;5.40;99.90;;;;;;5008027;28;20076;-80
2022/11/27 01:19:36;;;;;;;0.50;0.50;;;5.10;99.90;;;;;;5002245;28;20128;-81
2022/11/27 01:22:03;;;;;;;0.57;0.57;;;5.10;99.90;;;;;;4999669;28;20076;-80
2022/11/27 01:24:32;;;;;;;0.60;0.60;;;5.10;99.90;;;;;;5001138;28;20034;-80
2022/11/27 01:26:57;;;;;;;18.00;1.13;;;5.10;99.90;;;;;;5000790;28;20501;-79
2022/11/27 01:29:23;;;;;;;0.50;0.50;;;5.10;99.90;;;;;;4998608;28;20038;-79
2022/11/27 01:31:49;;;;;;;0.60;0.60;;;5.10;99.90;;;;;;5013277;28;20034;-79
2022/11/27 01:34:16;;;;;;;2.75;1.80;;;5.10;99.90;;;;;;4997546;28;20549;-79
2022/11/27 01:36:42;;;;;;;0.50;0.50;;;5.10;99.90;;;;;;4998747;28;20510;-80
2022/11/27 01:39:15;;;;;;;1.17;1.17;;;5.10;99.90;;;;;;4945960;28;20045;-79
2022/11/27 01:41:41;;;;;;;0.60;0.60;;;5.10;99.90;;;;;;5015190;28;20057;-79
2022/11/27 01:44:26;;;;;;;1.10;1.00;;;5.10;99.90;;;;;;4982637;28;20038;-80
2022/11/27 01:47:01;;;;;;;0.60;0.60;;;5.10;99.90;;;;;;4997959;28;20050;-80
2022/11/27 01:49:47;;;;;;;0.60;0.60;;;5.10;99.90;;;;;;4998209;28;20077;-79
2022/11/27 01:52:18;;;;;;;2.75;2.65;;;5.10;99.90;;;;;;5002881;28;20045;-80
2022/11/27 01:54:55;;;;;;;0.85;0.85;;;5.10;99.90;;;;;;5000726;28;20034;-80
2022/11/27 01:57:22;;;;;;;;;;;5.30;99.90;;;;;;5012488;28;20044;-80
2022/11/27 01:59:51;;;;;;;0.70;0.70;;;5.00;99.90;;;;;;4998107;28;19917;-80
2022/11/27 02:02:16;;;;;;;0.60;0.60;;;4.90;99.90;;;;;;4997200;28;20217;-81
2022/11/27 02:04:42;;;;;;;4.13;1.60;;;5.00;99.90;;;;;;4943505;28;20495;-80
2022/11/27 02:07:08;;;;;;;0.63;0.63;;;5.00;99.90;;;;;;4997634;28;20045;-79
2022/11/27 02:09:34;;;;;;;0.68;0.68;;;5.00;99.90;;;;;;5013904;28;20471;-79
2022/11/27 02:12:23;;;;;;;1.02;1.02;;;4.90;99.90;;;;;;4998035;28;20037;-80
2022/11/27 02:15:05;;;;;;;0.75;0.75;;;4.90;99.90;;;;;;5012823;28;20045;-80
2022/11/27 02:17:57;;;;;;;0.70;0.70;;;4.90;99.90;;;;;;4996792;28;20100;-82
2022/11/27 02:20:35;;;;;;;0.60;0.60;;;5.30;99.90;;;;;;4998813;28;20116;-80
2022/11/27 02:23:45;;;;;;;0.65;0.65;;;5.00;99.90;;;;;;4996288;28;20132;-80
2022/11/27 02:26:29;;;;;;;0.77;0.77;;;5.00;99.90;;;;;;5013287;28;20045;-80
2022/11/27 02:29:11;;;;;;;0.50;0.50;;;5.10;99.90;;;;;;4996807;28;20046;-80
2022/11/27 02:31:49;;;;;;;0.70;0.70;;;5.10;99.90;;;;;;4995925;28;20575;-81
2022/11/27 02:34:44;;;;;;;0.70;0.70;;;5.10;99.90;;;;;;4997628;28;20077;-80
2022/11/27 02:37:32;;;;;;;0.70;0.70;;;5.10;99.90;;;;;;4984133;28;20073;-80
2022/11/27 02:40:15;;;;;;;0.70;0.70;;;5.20;99.90;;;;;;5000309;28;20383;-80
2022/11/27 02:43:02;;;;;;;0.90;0.80;;;5.20;99.90;;;;;;4998501;28;20491;-81
2022/11/27 02:45:38;;;;;;;0.70;0.70;;;5.30;99.90;;;;;;5000298;28;20046;-79
2022/11/27 02:48:05;;;;;;;0.85;0.85;;;5.30;99.90;;;;;;5019223;28;20447;-80
2022/11/27 02:50:33;;;;;;;0.70;0.70;;;5.40;99.90;;;;;;5002749;28;20049;-80
2022/11/27 02:53:04;;;;;;;1.83;1.73;;;5.40;99.90;;;;;;5001648;28;20129;-80
2022/11/27 02:55:34;;;;;;;0.65;0.65;;;5.40;99.90;;;;;;5000034;28;20045;-79
2022/11/27 02:58:04;;;;;;;1.00;1.00;;;5.70;99.90;;;;;;5002079;28;20408;-80
2022/11/27 03:00:31;;;;;;;0.60;0.60;;;5.50;99.90;;;;;;5001022;28;20502;-79
2022/11/27 03:03:03;;;;;;;0.90;0.90;;;5.50;99.90;;;;;;4999156;28;20189;-80
2022/11/27 03:05:33;;;;;;;0.60;0.60;;;5.50;99.90;;;;;;4998826;28;20050;-81
2022/11/27 03:08:24;;;;;;;0.68;0.68;;;5.60;99.90;;;;;;5014962;28;20065;-81
2022/11/27 03:11:04;;;;;;;0.60;0.60;;;5.60;99.90;;;;;;5001630;28;20101;-82
2022/11/27 03:13:34;;;;;;;0.60;0.60;;;5.60;99.90;;;;;;5001691;28;20046;-80
2022/11/27 03:16:20;;;;;;;0.70;0.70;;;5.70;99.90;;;;;;4998435;28;20046;-80
2022/11/27 03:18:58;;;;;;;1.08;1.08;;;5.70;99.90;;;;;;4984417;28;20046;-80
2022/11/27 03:21:42;;;;;;;0.80;0.80;;;5.60;99.90;;;;;;4997904;28;20104;-80
2022/11/27 03:24:08;;;;;;;0.60;0.60;;;5.60;99.90;;;;;;5001325;28;20553;-80
2022/11/27 03:26:35;;;;;;;1.23;1.23;;;5.60;99.90;;;;;;4998806;28;20546;-80
2022/11/27 03:29:11;;;;;;;0.65;0.65;;;5.70;99.90;;;;;;4998939;28;20034;-80
2022/11/27 03:31:39;;;;;;;1.67;1.58;;;5.70;99.90;;;;;;4998581;28;20080;-81
2022/11/27 03:34:05;;;;;;;0.63;0.63;;;5.70;99.90;;;;;;5002438;28;20045;-81
2022/11/27 03:36:31;;;;;;;0.70;0.70;;;5.80;99.90;;;;;;5016703;28;20046;-80
2022/11/27 03:38:56;;;;;;;0.82;0.82;;;5.80;99.90;;;;;;5000122;28;20049;-80
2022/11/27 03:41:43;;;;;;;1.52;0.95;;;5.80;99.90;;;;;;4983935;28;20947;-80
2022/11/27 03:44:21;;;;;;;0.50;0.50;;;5.80;99.90;;;;;;5004019;28;20056;-80
2022/11/27 03:46:58;;;;;;;0.90;0.90;;;5.80;99.90;;;;;;5006835;28;20120;-78
2022/11/27 03:49:41;;;;;;;0.50;0.50;;;5.80;99.90;;;;;;5005271;28;20077;-79
2022/11/27 03:52:26;;;;;;;0.73;0.73;;;5.80;99.90;;;;;;4997076;28;20991;-80
2022/11/27 03:55:10;;;;;;;0.70;0.70;;;5.80;99.90;;;;;;5000589;28;20045;-80
2022/11/27 03:57:54;;;;;;;0.73;0.60;;;5.80;99.90;;;;;;4999701;28;20060;-81
2022/11/27 04:00:20;;;;;;;0.60;0.60;;;5.80;99.90;;;;;;4997954;28;20046;-81
2022/11/27 04:02:50;;;;;;;0.90;0.90;;;6.10;99.90;;;;;;4998382;28;20050;-80
2022/11/27 04:05:16;;;;;;;0.68;0.68;;;5.80;99.90;;;;;;4983086;28;20054;-81
2022/11/27 04:07:42;;;;;;;0.70;0.70;;;5.80;99.90;;;;;;5002262;28;20054;-80
2022/11/27 04:10:09;;;;;;;0.68;0.68;;;5.80;99.90;;;;;;4983307;28;20049;-80
2022/11/27 04:12:35;;;;;;;0.60;0.60;;;5.80;99.90;;;;;;5000663;28;20046;-80
2022/11/27 04:15:03;;;;;;;0.82;0.82;;;6.00;99.90;;;;;;5001218;28;20040;-80
2022/11/27 04:17:28;;;;;;;0.80;0.80;;;5.70;99.90;;;;;;5013360;28;20054;-80
2022/11/27 04:19:54;;;;;;;1.20;1.20;;;6.20;99.90;;;;;;4996143;28;20352;-80
2022/11/27 04:22:20;;;;;;;0.60;0.60;;;5.70;99.90;;;;;;4998139;28;21721;-80
2022/11/27 04:24:45;;;;;;;0.60;0.60;;;5.80;99.90;;;;;;4999259;28;20557;-80
2022/11/27 04:27:11;;;;;;;0.95;0.95;;;5.70;99.90;;;;;;4981211;28;20073;-80
2022/11/27 04:29:38;;;;;;;0.63;0.63;;;5.70;99.90;;;;;;5003488;28;21911;-81
2022/11/27 04:32:04;;;;;;;0.50;0.50;;;5.70;99.90;;;;;;5011611;28;20042;-80
2022/11/27 04:34:31;;;;;;;0.40;0.40;;;5.70;99.90;;;;;;4998397;28;20041;-79
2022/11/27 04:36:56;;;;;;;0.60;0.60;;;5.70;99.90;;;;;;4998864;28;20038;-79
2022/11/27 04:39:22;;;;;;;0.60;0.60;;;5.60;99.90;;;;;;4996619;28;20500;-79
2022/11/27 04:41:48;;;;;;;0.57;0.57;;;5.70;99.90;;;;;;4997487;28;20049;-79
2022/11/27 04:44:14;;;;;;;0.50;0.50;;;5.60;99.90;;;;;;4998691;28;20061;-79
2022/11/27 04:46:40;;;;;;;0.57;0.57;;;5.80;99.90;;;;;;4995950;28;20034;-79
2022/11/27 04:49:06;;;;;;;0.70;0.70;;;5.60;99.90;;;;;;4996663;28;20054;-77
2022/11/27 04:51:32;;;;;;;2.08;1.80;;;5.60;99.90;;;;;;4981778;28;20049;-78
2022/11/27 04:53:59;;;;;;;2.50;1.02;;;5.60;99.90;;;;;;4999601;28;20046;-79
2022/11/27 04:56:24;;;;;;;0.60;0.60;;;5.60;99.90;;;;;;4996086;28;20042;-79
2022/11/27 04:58:50;;;;;;;9.82;1.15;;;5.60;99.90;;;;;;4981157;28;22020;-79
2022/11/27 05:01:16;;;;;;;1.35;1.35;;;5.50;99.90;;;;;;4983045;28;20403;-80
2022/11/27 05:03:41;;;;;;;0.60;0.60;;;5.50;99.90;;;;;;4996588;28;20042;-80
2022/11/27 05:06:07;;;;;;;0.65;0.65;;;5.60;99.90;;;;;;5000163;28;20115;-79
2022/11/27 05:08:33;;;;;;;0.60;0.60;;;5.50;99.90;;;;;;4999416;28;20061;-77
2022/11/27 05:11:01;;;;;;;1.02;1.02;;;5.50;99.90;;;;;;4980263;28;20037;-77
2022/11/27 05:13:27;;;;;;;1.25;1.25;;;5.60;99.90;;;;;;4996432;28;20052;-79
2022/11/27 05:15:52;;;;;;;0.70;0.70;;;5.50;99.90;;;;;;4966171;28;20065;-78
2022/11/27 05:18:18;;;;;;;0.68;0.68;;;5.40;99.90;;;;;;5003481;28;20049;-78
2022/11/27 05:20:44;;;;;;;0.60;0.60;;;5.40;99.90;;;;;;5017770;28;20060;-77
2022/11/27 05:23:09;;;;;;;0.65;0.65;;;5.40;99.90;;;;;;5003176;28;20152;-78
2022/11/27 05:25:38;;;;;;;1.95;0.85;;;5.40;99.90;;;;;;5017948;28;20041;-79
2022/11/27 05:28:04;;;;;;;0.65;0.65;;;5.30;99.90;;;;;;5003388;28;20111;-78
2022/11/27 05:30:30;;;;;;;0.70;0.70;;;5.30;99.90;;;;;;5003990;28;20037;-77
2022/11/27 05:32:55;;;;;;;0.73;0.73;;;5.20;99.90;;;;;;5003322;28;20095;-78
2022/11/27 05:35:21;;;;;;;0.77;0.77;;;5.20;99.90;;;;;;5004859;28;20130;-78
2022/11/27 05:37:46;;;;;;;0.60;0.60;;;5.30;99.90;;;;;;5016052;28;20093;-77
2022/11/27 05:40:12;;;;;;;0.60;0.60;;;5.30;99.90;;;;;;5018199;28;20072;-78
2022/11/27 05:42:38;;;;;;;0.60;0.60;;;5.10;99.90;;;;;;5000021;28;20056;-78
2022/11/27 05:45:04;;;;;;;0.60;0.60;;;5.00;99.90;;;;;;5004801;28;20045;-77
2022/11/27 05:47:30;;;;;;;0.60;0.60;;;5.00;99.90;;;;;;5006172;28;20045;-78
2022/11/27 05:49:55;;;;;;;0.80;0.80;;;5.10;99.90;;;;;;4982597;28;20037;-77
2022/11/27 05:52:21;;;;;;;1.17;0.95;;;5.00;99.90;;;;;;5015960;28;20087;-78
2022/11/27 05:54:48;;;;;;;0.70;0.70;;;5.70;99.90;;;;;;5000796;28;20045;-78
2022/11/27 05:57:13;;;;;;;0.82;0.82;;;5.00;99.90;;;;;;4987870;28;20091;-77
2022/11/27 05:59:39;;;;;;;0.70;0.70;;;5.10;99.90;;;;;;5002889;28;20050;-79
2022/11/27 06:02:05;;;;;;;0.95;0.95;;;5.10;99.90;;;;;;5004339;28;20044;-78
2022/11/27 06:04:32;;;;;;;;;;;5.10;99.90;;;;;;5001565;28;20116;-78
2022/11/27 06:06:58;;;;;;;0.90;0.73;;;5.20;99.90;;;;;;5002629;28;20003;-78
2022/11/27 06:09:26;;;;;;;0.60;0.60;;;5.40;99.90;;;;;;5016531;28;20033;-78
2022/11/27 06:11:52;;;;;;;0.70;0.70;;;5.10;99.90;;;;;;5005127;28;20041;-77
2022/11/27 06:14:18;;;;;;;2.67;2.47;;;5.20;99.90;;;;;;5014853;28;20542;-78
2022/11/27 06:16:43;;;;;;;0.60;0.60;;;5.20;99.90;;;;;;5003607;28;20053;-77
2022/11/27 06:19:09;;;;;;;0.60;0.60;;;5.20;99.90;;;;;;5005051;28;20527;-78
2022/11/27 06:21:35;;;;;;;0.55;0.55;;;5.40;99.90;;;;;;5004591;28;20049;-79
2022/11/27 06:24:02;;;;;;;0.60;0.60;;;5.20;99.90;;;;;;5003336;28;20824;-80
2022/11/27 06:26:30;;;;;;;0.93;0.93;;;5.20;99.90;;;;;;4998993;28;20053;-78
2022/11/27 06:28:58;;;;;;;0.50;0.50;;;5.20;99.90;;;;;;5006543;28;20406;-77
2022/11/27 06:31:27;;;;;;;0.82;0.70;;;5.30;99.90;;;;;;5008382;28;20045;-77
2022/11/27 06:33:54;;;;;;;0.80;0.80;;;5.30;99.90;;;;;;5005160;28;20049;-78
2022/11/27 06:36:21;;;;;;;0.75;0.75;;;5.30;99.90;;;;;;5021192;28;20049;-78
2022/11/27 06:38:47;;;;;;;0.70;0.70;;;5.30;99.90;;;;;;5000175;28;20121;-78
2022/11/27 06:41:16;;;;;;;0.63;0.63;;;5.30;99.90;;;;;;4985241;28;20081;-77
2022/11/27 06:43:43;;;;;;;0.80;0.80;;;5.30;99.90;;;;;;4997854;28;20050;-78
2022/11/27 06:46:14;;;;;;;0.60;0.60;;;5.30;99.90;;;;;;5004756;28;20042;-78
2022/11/27 06:48:40;;;;;;;0.60;0.60;;;5.30;99.90;;;;;;5015157;28;20052;-78
2022/11/27 06:51:07;;;;;;;2.20;2.13;;;5.30;99.90;;;;;;5003436;28;20033;-77
2022/11/27 06:53:36;;;;;;;0.43;0.43;;;5.40;99.90;;;;;;5005426;28;20041;-79
2022/11/27 06:56:07;;;;;;;2.83;2.72;;;5.40;99.90;;;;;;5000971;28;20064;-78
2022/11/27 06:58:34;;;;;;;0.90;0.90;;;5.40;99.90;;;;;;5002114;28;20176;-78
2022/11/27 07:01:00;;;;;;;;;;;5.40;99.90;;;;;;5005322;28;20696;-78
2022/11/27 07:03:26;;;;;;;0.60;0.60;;;5.40;99.90;;;;;;5005033;28;19917;-77
2022/11/27 07:05:52;;;;;;;0.43;0.43;;;5.40;99.90;;;;;;5015910;28;20045;-80
2022/11/27 07:08:18;;;;;;;0.70;0.70;;;5.40;99.90;;;;;;5000521;28;20442;-79
2022/11/27 07:10:43;;;;;;;0.80;0.80;;;5.90;99.90;;;;;;4988114;28;20049;-79
2022/11/27 07:13:09;;;;;;;0.50;0.50;;;5.40;99.90;;;;;;5003455;28;20152;-79
2022/11/27 07:15:35;;;;;;;0.90;0.90;;;5.40;99.90;;;;;;5004898;28;20048;-80
2022/11/27 07:18:01;;;;;;;0.50;0.50;;;5.40;99.90;;;;;;4985675;28;20057;-80
2022/11/27 07:20:26;;;;;;;;;;;5.50;99.90;;;;;;5004478;28;20045;-80
2022/11/27 07:22:52;;;;;;;0.85;0.85;;;5.40;99.90;;;;;;5003436;28;19931;-80
2022/11/27 07:25:18;;;;;;;1.90;1.80;;;5.50;99.90;;;;;;5019746;28;20129;-79
2022/11/27 07:27:43;;;;;;;1.27;0.98;;;5.40;99.90;;;;;;5012791;28;20038;-79
2022/11/27 07:30:10;;;;;;;0.50;0.50;;;5.70;99.90;;;;;;5020748;28;20096;-80
2022/11/27 07:32:35;;;;;;;0.50;0.50;;;5.50;99.90;;;;;;5026541;28;20033;-80
2022/11/27 07:35:01;;;;;;;0.90;0.77;;;5.50;99.90;;;;;;5017818;28;20040;-79
2022/11/27 07:37:30;;;;;;;0.57;0.57;;;5.80;99.90;;;;;;5007330;28;20137;-81
2022/11/27 07:39:55;;;;;;;0.43;0.43;;;5.50;99.90;;;;;;4991660;28;20103;-80
2022/11/27 07:42:21;;;;;;;0.60;0.60;;;5.40;99.90;;;;;;4992528;28;20069;-80
2022/11/27 07:44:47;;;;;;;0.80;0.80;;;5.50;99.90;;;;;;5008030;28;20060;-79
2022/11/27 07:47:12;;;;;;;0.63;0.63;;;5.50;99.90;;;;;;5019499;28;20874;-79
2022/11/27 07:49:38;;;;;;;1.25;1.25;;;5.50;99.90;;;;;;5004784;28;20478;-79
2022/11/27 07:52:07;;;;;;;0.60;0.60;;;5.50;99.90;;;;;;5004523;28;20077;-79
2022/11/27 07:54:33;;;;;;;0.82;0.82;;;5.60;99.90;;;;;;5022152;28;20045;-79
2022/11/27 07:56:59;;;;;;;;;;;6.00;99.90;;;;;;5023786;28;20095;-79
2022/11/27 07:59:25;;;;;;;0.60;0.60;;;5.50;99.90;;;;;;5021396;28;19917;-78
2022/11/27 08:01:50;;;;;;;0.50;0.50;;;5.60;99.90;;;;;;5021227;28;20045;-79
2022/11/27 08:04:16;;;;;;;0.47;0.47;;;5.60;99.90;;;;;;5020476;28;20053;-79
2022/11/27 08:06:42;;;;;;;0.60;0.60;;;5.60;99.90;;;;;;5006158;28;20479;-79
2022/11/27 08:09:07;;;;;;;0.60;0.60;;;5.70;99.90;;;;;;5019806;28;20585;-78
2022/11/27 08:11:34;;;;;;;0.55;0.55;;;5.70;99.90;;;;;;5021151;28;20034;-79
2022/11/27 08:14:02;;;;;;;0.50;0.50;;;5.80;99.90;;;;;;5020622;28;20040;-79
2022/11/27 08:16:29;;;;;;;0.50;0.50;;;5.80;99.90;;;;;;5029527;28;20059;-78
2022/11/27 08:18:55;;;;;;;0.60;0.60;;;5.90;99.90;;;;;;5015391;28;20392;-78
2022/11/27 08:21:21;;;;;;;;;;;6.10;99.90;;;;;;4992573;28;20041;-79
2022/11/27 08:23:47;;;;;;;1.10;1.10;;;5.80;99.90;;;;;;5009660;28;19963;-79
2022/11/27 08:26:13;;;;;;;0.55;0.55;;;5.80;99.90;;;;;;5008562;28;21604;-78
2022/11/27 08:28:42;;;;;;;0.77;0.77;;;5.80;99.90;;;;;;5007368;28;20052;-79
2022/11/27 08:31:10;;;;;;;0.70;0.70;;;5.80;99.90;;;;;;5007451;28;20037;-78
2022/11/27 08:33:36;;;;;;;0.50;0.50;;;5.80;99.90;;;;;;5021032;28;20052;-82
2022/11/27 08:36:02;;;;;;;;;;;5.80;99.90;;;;;;5008880;28;20114;-79
2022/11/27 08:38:28;;;;;;;0.65;0.65;;;5.70;99.90;;;;;;5005777;28;20007;-80
2022/11/27 08:40:56;;;;;;;0.60;0.60;;;5.80;99.90;;;;;;5020089;28;20067;-80
2022/11/27 08:43:22;;;;;;;0.50;0.50;;;5.80;99.90;;;;;;5024697;28;20132;-80
2022/11/27 08:45:48;;;;;;;0.60;0.60;;;5.70;99.90;;;;;;5018939;28;20364;-79
2022/11/27 08:48:13;;;;;;;0.40;0.40;;;5.80;99.90;;;;;;5005223;28;20060;-79
2022/11/27 08:50:39;;;;;;;0.50;0.50;;;5.70;99.90;;;;;;4992890;28;20037;-80
2022/11/27 08:53:05;;;;;;;0.60;0.60;;;5.70;99.90;;;;;;5007387;28;20145;-80
2022/11/27 08:55:30;;;;;;;0.85;0.85;;;5.70;99.90;;;;;;4972694;28;20046;-79
2022/11/27 08:57:56;;;;;;;0.50;0.50;;;5.70;99.90;;;;;;4995180;28;20052;-80
2022/11/27 09:00:22;;;;;;;0.68;0.68;;;5.70;99.90;;;;;;4999237;28;20057;-80
2022/11/27 09:02:47;;;;;;;0.55;0.55;;;5.80;99.90;;;;;;5004845;28;20049;-79
2022/11/27 09:05:13;;;;;;;0.57;0.57;;;5.80;99.90;;;;;;5006774;28;20072;-80
2022/11/27 09:07:40;;;;;;;0.95;0.95;;;5.80;99.90;;;;;;5002794;28;20073;-81
2022/11/27 09:10:07;;;;;;;0.60;0.60;;;5.80;99.90;;;;;;5000270;28;20088;-79
2022/11/27 09:12:32;;;;;;;0.70;0.70;;;5.80;99.90;;;;;;4994767;28;20041;-79
2022/11/27 09:14:58;;;;;;;0.80;0.80;;;5.90;99.90;;;;;;5022397;28;20390;-79
2022/11/27 09:17:24;;;;;;;0.50;0.50;;;5.90;99.90;;;;;;4995480;28;20131;-78
2022/11/27 09:19:51;;;;;;;0.68;0.68;;;6.00;99.90;;;;;;4991914;28;20038;-80
2022/11/27 09:22:17;;;;;;;0.65;0.65;;;6.10;99.90;;;;;;5029137;28;20502;-78
2022/11/27 09:24:43;;;;;;;;;;;6.00;99.90;;;;;;5007100;28;20049;-81
2022/11/27 09:27:08;;;;;;;0.52;0.52;;;6.00;99.90;;;;;;4984185;28;19990;-82
2022/11/27 09:29:35;;;;;;;0.52;0.52;;;6.00;99.90;;;;;;5003224;28;20486;-79
2022/11/27 09:32:00;;;;;;;0.50;0.50;;;5.90;99.90;;;;;;5000451;28;20053;-81
2022/11/27 09:34:26;;;;;;;0.60;0.60;;;5.90;99.90;;;;;;4987198;28;20041;-78
2022/11/27 09:36:52;;;;;;;0.60;0.60;;;5.90;99.90;;;;;;5017329;28;20041;-79
2022/11/27 09:39:19;;;;;;;0.60;0.60;;;5.90;99.90;;;;;;5014586;28;20049;-79
2022/11/27 09:41:52;;;;;;;0.80;0.80;;;5.90;99.90;;;;;;5020589;28;20041;-79
2022/11/27 09:44:41;;;;;;;0.60;0.60;;;5.90;99.90;;;;;;5000297;28;20132;-81
2022/11/27 09:47:26;;;;;;;0.70;0.70;;;5.80;99.90;;;;;;5018608;28;20053;-80
2022/11/27 09:50:00;;;;;;;0.50;0.50;;;5.80;99.90;;;;;;5002267;28;20789;-77
2022/11/27 09:52:48;;;;;;;0.55;0.55;;;5.80;99.90;;;;;;5020135;28;20077;-78
2022/11/27 09:55:20;;;;;;;0.60;0.60;;;5.80;99.90;;;;;;5003650;28;20060;-76
2022/11/27 09:58:04;;;;;;;0.40;0.40;;;5.80;99.90;;;;;;5017536;28;20210;-78
2022/11/27 10:00:29;;;;;;;0.40;0.40;;;5.80;99.90;;;;;;5018625;28;20045;-79
2022/11/27 10:02:55;;;;;;;0.60;0.60;;;5.70;99.90;;;;;;4988996;28;21459;-81
2022/11/27 10:05:24;;;;;;;0.57;0.57;;;5.80;99.90;;;;;;5008102;28;20048;-77
2022/11/27 10:08:14;;;;;;;0.77;0.77;;;5.80;99.90;;;;;;5006903;28;20046;-77
2022/11/27 10:11:11;;;;;;;0.63;0.63;;;5.90;99.90;;;;;;5004158;28;20040;-77
2022/11/27 10:13:50;;;;;;;0.57;0.57;;;5.70;99.90;;;;;;5012905;28;20049;-77
2022/11/27 10:16:25;;;;;;;0.50;0.50;;;5.80;99.90;;;;;;5017766;28;20061;-79
2022/11/27 10:19:18;;;;;;;1.05;0.82;;;5.70;99.90;;;;;;5000136;28;20051;-78
2022/11/27 10:22:03;;;;;;;0.45;0.45;;;5.70;99.90;;;;;;5020567;28;20376;-78
2022/11/27 10:24:53;;;;;;;0.60;0.60;;;5.80;99.90;;;;;;5016552;28;20437;-79
2022/11/27 10:27:21;;;;;;;0.50;0.50;;;5.80;99.90;;;;;;5000318;28;20234;-78
2022/11/27 10:29:54;;;;;;;2.17;2.08;;;5.80;99.90;;;;;;4999452;28;20041;-78
2022/11/27 10:32:25;;;;;;;0.50;0.50;;;5.80;99.90;;;;;;5017127;28;20042;-77
2022/11/27 10:34:56;;;;;;;0.63;0.63;;;5.80;99.90;;;;;;5015515;28;20132;-78
2022/11/27 10:37:27;;;;;;;0.82;0.82;;;5.80;99.90;;;;;;5011993;28;20038;-78
2022/11/27 10:40:21;;;;;;;0.60;0.60;;;5.80;99.90;;;;;;5015207;28;20069;-79
2022/11/27 10:42:57;;;;;;;1.30;1.00;;;5.80;99.90;;;;;;4998922;28;20045;-80
2022/11/27 10:45:44;;;;;;;0.40;0.40;;;5.80;99.90;;;;;;5000487;28;20045;-79
2022/11/27 10:48:11;;;;;;;;;;;5.80;99.90;;;;;;5014899;28;20045;-76
2022/11/27 10:50:37;;;;;;;0.70;0.70;;;5.80;99.90;;;;;;5000430;28;20278;-79
2022/11/27 10:53:38;;;;;;;;;;;5.80;99.90;;;;;;4984760;28;20038;-78
2022/11/27 10:56:22;;;;;;;0.60;0.60;;;5.80;99.90;;;;;;4940398;28;19929;-77
2022/11/27 10:59:04;;;;;;;1.08;1.08;;;5.80;99.90;;;;;;4990307;28;20064;-80
2022/11/27 11:01:42;;;;;;;0.50;0.50;;;5.90;99.90;;;;;;5006556;28;20083;-81
2022/11/27 11:04:10;;;;;;;0.68;0.68;;;5.90;99.90;;;;;;5005842;28;20041;-79
2022/11/27 11:06:41;;;;;;;0.55;0.55;;;5.90;99.90;;;;;;5024180;28;20035;-79
2022/11/27 11:09:31;;;;;;;0.90;0.90;;;5.90;99.90;;;;;;5024681;28;20076;-79
2022/11/27 11:12:20;;;;;;;0.40;0.40;;;5.90;99.90;;;;;;5030059;28;20045;-78
2022/11/27 11:14:57;;;;;;;0.85;0.85;;;6.00;99.90;;;;;;5012761;28;20037;-78
2022/11/27 11:17:33;;;;;;;0.40;0.40;;;6.00;99.90;;;;;;5020169;28;20141;-80
2022/11/27 11:19:59;;;;;;;1.38;1.10;;;6.00;99.90;;;;;;5000278;28;20033;-78
2022/11/27 11:22:27;;;;;;;0.98;0.98;;;6.00;99.90;;;;;;5014427;28;20041;-77
2022/11/27 11:24:53;;;;;;;0.60;0.60;;;6.00;99.90;;;;;;5012780;28;20128;-79
2022/11/27 11:27:25;;;;;;;0.57;0.57;;;6.00;99.90;;;;;;5020855;28;20038;-79
2022/11/27 11:29:59;;;;;;;0.60;0.60;;;6.00;99.90;;;;;;4988473;28;20073;-80
2022/11/27 11:32:29;;;;;;;0.73;0.73;;;6.00;99.90;;;;;;5002551;28;20045;-77
2022/11/27 11:34:56;;;;;;;0.80;0.80;;;6.00;99.90;;;;;;5003425;28;20180;-79
2022/11/27 11:37:30;;;;;;;1.30;1.25;;;6.20;99.90;;;;;;5004027;28;20041;-77
2022/11/27 11:40:07;;;;;;;0.85;0.85;;;6.00;99.90;;;;;;5007459;28;20074;-80
2022/11/27 11:42:35;;;;;;;0.73;0.73;;;6.00;99.90;;;;;;5006107;28;20041;-79
2022/11/27 11:45:16;;;;;;;0.60;0.60;;;6.10;99.90;;;;;;4995398;28;20056;-78
2022/11/27 11:47:49;;;;;;;0.65;0.65;;;6.00;99.90;;;;;;5019917;28;20375;-78
2022/11/27 11:50:43;;;;;;;0.70;0.70;;;6.00;99.90;;;;;;5012249;28;20194;-78
2022/11/27 11:53:23;;;;;;;0.50;0.50;;;6.00;99.90;;;;;;5006364;28;20040;-78
2022/11/27 11:55:52;;;;;;;0.60;0.60;;;6.00;99.90;;;;;;5028363;28;20431;-78
2022/11/27 11:58:54;;;;;;;0.88;0.88;;;6.00;99.90;;;;;;5010978;28;20378;-78
2022/11/27 12:01:39;;;;;;;1.08;1.08;;;6.00;99.90;;;;;;5008650;28;20045;-81
2022/11/27 12:04:35;;;;;;;0.57;0.57;;;6.10;99.90;;;;;;5011672;28;20064;-78
2022/11/27 12:07:31;;;;;;;0.70;0.70;;;6.10;99.90;;;;;;5001044;28;20055;-80
2022/11/27 12:10:33;;;;;;;1.13;1.13;;;6.10;99.90;;;;;;4988760;28;20053;-80
2022/11/27 12:13:37;;;;;;;0.70;0.70;;;6.10;99.90;;;;;;5011549;28;20053;-80
2022/11/27 12:16:57;;;;;;;0.75;0.75;;;6.10;99.90;;;;;;5023350;28;20069;-80
2022/11/27 12:20:00;;;;;;;1.00;1.00;;;6.10;99.90;;;;;;5000256;28;20057;-79
2022/11/27 12:22:47;;;;;;;1.00;0.98;;;6.10;99.90;;;;;;5002988;28;20045;-79
2022/11/27 12:25:15;;;;;;;0.52;0.52;;;6.10;99.90;;;;;;5007365;28;20095;-81
2022/11/27 12:27:50;;;;;;;0.50;0.50;;;6.10;99.90;;;;;;5002221;28;20408;-80
2022/11/27 12:30:26;;;;;;;0.60;0.60;;;6.10;99.90;;;;;;5001246;28;20038;-79
2022/11/27 12:33:19;;;;;;;1.77;0.75;;;6.10;99.90;;;;;;5020561;28;20037;-79
2022/11/27 12:36:02;;;;;;;1.02;1.02;;;6.10;99.90;;;;;;5017452;28;20127;-77
2022/11/27 12:38:51;;;;;;;0.88;0.88;;;6.10;99.90;;;;;;5004955;28;20463;-78
2022/11/27 12:41:46;;;;;;;0.70;0.70;;;6.20;99.90;;;;;;4997120;28;20508;-78
2022/11/27 12:44:47;;;;;;;0.45;0.45;;;6.20;99.90;;;;;;4986105;28;20495;-79
2022/11/27 12:47:30;;;;;;;0.60;0.60;;;6.30;99.90;;;;;;5018323;28;20345;-79
2022/11/27 12:50:22;;;;;;;0.70;0.70;;;6.30;99.90;;;;;;5003730;28;20038;-78
2022/11/27 12:53:10;;;;;;;0.50;0.50;;;6.30;99.90;;;;;;5002809;28;20491;-79
2022/11/27 12:55:40;;;;;;;0.52;0.52;;;6.30;99.90;;;;;;5020780;28;20041;-76
2022/11/27 12:58:18;;;;;;;1.50;1.45;;;6.30;99.90;;;;;;4995164;28;20363;-77
2022/11/27 13:00:44;;;;;;;0.50;0.50;;;6.30;99.90;;;;;;4994584;28;20049;-79
2022/11/27 13:03:33;;;;;;;1.20;1.20;;;6.30;99.90;;;;;;4991326;28;20117;-78
2022/11/27 13:06:07;;;;;;;0.50;0.50;;;6.30;99.90;;;;;;5002146;28;20056;-77
2022/11/27 13:08:47;;;;;;;0.50;0.50;;;6.30;99.90;;;;;;5008942;28;20068;-80
2022/11/27 13:11:16;;;;;;;0.50;0.50;;;6.20;99.90;;;;;;5023125;28;20047;-78
2022/11/27 13:14:00;;;;;;;0.50;0.50;;;6.20;99.90;;;;;;5002610;28;20096;-78
2022/11/27 13:16:30;;;;;;;0.77;0.77;;;6.20;99.90;;;;;;4999191;28;20490;-77
2022/11/27 13:19:18;;;;;;;0.68;0.68;;;6.20;99.90;;;;;;5001665;28;20063;-77
2022/11/27 13:21:45;;;;;;;;;;;6.20;99.90;;;;;;5019220;28;20493;-77
2022/11/27 13:24:12;;;;;;;1.00;1.00;;;6.20;99.90;;;;;;4988849;28;19921;-79